Time;durP1;ratioP1;P1;durP2;ratioP2;P2;SDS_P1;SDS_P2;PMS_P1;PMS_P2;Temp;Humidity;BMP_temperature;BMP_pressure;BME280_temperature;BME280_humidity;BME280_pressure;Samples;Min_cycle;Max_cycle;Signal;HPM_P1;HPM_P2
2022/12/26 00:01:18;;;;;;;;;;;;;;;6.20;69.74;99634.75;4958077;29;1255;-77
2022/12/26 00:03:45;;;;;;;;;;;;;;;6.30;69.69;99637.78;4933682;29;1362;-75
2022/12/26 00:06:12;;;;;;;;;;;;;;;6.20;69.93;99634.75;4950499;28;2304;-77
2022/12/26 00:08:38;;;;;;;;;;;;;;;6.21;70.10;99630.25;4938487;29;1163;-77
2022/12/26 00:11:05;;;;;;;;;;;;;;;6.34;69.53;99627.47;4956536;28;1329;-78
2022/12/26 00:13:31;;;;;;;;;;;;;;;6.20;70.03;99618.69;4982805;23;3547;-78
2022/12/26 00:15:58;;;;;;;;;;;;;;;6.42;69.33;99616.53;4994270;28;1141;-78
2022/12/26 00:18:25;;;;;;;;;;;;;;;6.22;69.82;99616.63;4973121;28;1177;-78
2022/12/26 00:20:51;;;;;;;;;;;;;;;6.29;69.70;99613.94;4973948;28;1947;-79
2022/12/26 00:23:18;;;;;;;;;;;;;;;6.35;69.27;99611.22;4995793;28;2450;-78
2022/12/26 00:25:44;;;;;;;;;;;;;;;6.24;69.82;99611.09;4968334;28;1167;-79
2022/12/26 00:28:11;;;;;;;;;;;;;;;6.28;69.78;99618.47;4978896;28;1267;-79
2022/12/26 00:30:37;;;;;;;;;;;;;;;6.26;69.38;99620.50;4997474;28;1208;-79
2022/12/26 00:33:04;;;;;;;;;;;;;;;6.40;69.33;99605.22;4979051;28;2024;-79
2022/12/26 00:35:31;;;;;;;;;;;;;;;6.26;69.49;99607.16;4994581;28;2103;-79
2022/12/26 00:37:57;;;;;;;;;;;;;;;6.29;69.81;99604.03;4979025;28;2115;-79
2022/12/26 00:40:24;;;;;;;;;;;;;;;6.25;69.51;99602.84;4976402;28;1194;-80
2022/12/26 00:42:50;;;;;;;;;;;;;;;6.22;69.76;99605.94;4994316;28;3244;-80
2022/12/26 00:45:17;;;;;;;;;;;;;;;6.28;69.77;99594.38;4994869;28;2098;-80
2022/12/26 00:47:43;;;;;;;;;;;;;;;6.23;69.95;99598.75;4996855;28;1868;-79
2022/12/26 00:50:10;;;;;;;;;;;;;;;6.45;69.55;99597.38;4968250;28;1195;-79
2022/12/26 00:52:36;;;;;;;;;;;;;;;6.22;69.96;99592.56;4991905;28;2174;-79
2022/12/26 00:55:03;;;;;;;;;;;;;;;6.30;69.78;99592.34;4973090;28;2044;-79
2022/12/26 00:57:29;;;;;;;;;;;;;;;6.34;69.28;99595.38;4978542;28;2101;-79
2022/12/26 00:59:56;;;;;;;;;;;;;;;6.24;69.65;99585.16;4978785;28;1921;-79
2022/12/26 01:02:38;;;;;;;;;;;;;;;6.34;69.66;99582.81;4979483;28;1284;-79
2022/12/26 01:05:04;;;;;;;;;;;;;;;6.18;70.10;99574.50;4985059;28;2067;-79
2022/12/26 01:07:31;;;;;;;;;;;;;;;6.17;70.22;99568.31;4985317;28;2110;-79
2022/12/26 01:09:58;;;;;;;;;;;;;;;6.18;69.91;99575.34;4993849;28;1176;-79
2022/12/26 01:12:26;;;;;;;;;;;;;;;6.27;70.02;99567.88;4986895;28;3215;-79
2022/12/26 01:14:52;;;;;;;;;;;;;;;6.26;69.64;99561.69;4987938;28;2254;-79
2022/12/26 01:17:19;;;;;;;;;;;;;;;6.22;69.96;99563.16;4973265;28;1376;-78
2022/12/26 01:19:45;;;;;;;;;;;;;;;6.20;70.04;99562.56;4995276;28;2093;-79
2022/12/26 01:22:12;;;;;;;;;;;;;;;6.25;69.82;99552.03;4972641;28;2179;-79
2022/12/26 01:24:38;;;;;;;;;;;;;;;6.16;70.25;99558.69;4975917;28;1918;-79
2022/12/26 01:27:05;;;;;;;;;;;;;;;6.39;69.46;99558.13;4978632;28;1199;-78
2022/12/26 01:29:31;;;;;;;;;;;;;;;6.19;69.98;99554.75;4978211;28;1294;-78
2022/12/26 01:31:58;;;;;;;;;;;;;;;6.33;69.95;99556.31;4974838;28;2055;-78
2022/12/26 01:34:24;;;;;;;;;;;;;;;6.09;70.38;99548.03;4988059;28;1914;-78
2022/12/26 01:36:51;;;;;;;;;;;;;;;6.17;70.35;99554.16;4996173;28;1178;-78
2022/12/26 01:39:18;;;;;;;;;;;;;;;6.24;69.98;99547.72;4994037;28;2130;-76
2022/12/26 01:41:44;;;;;;;;;;;;;;;6.15;70.14;99543.69;4987427;28;2895;-78
2022/12/26 01:44:11;;;;;;;;;;;;;;;6.26;69.74;99534.13;4976637;28;2238;-79
2022/12/26 01:46:37;;;;;;;;;;;;;;;6.15;70.31;99533.00;4975726;28;1425;-78
2022/12/26 01:49:04;;;;;;;;;;;;;;;6.17;70.19;99533.56;4996224;28;2138;-78
2022/12/26 01:51:30;;;;;;;;;;;;;;;6.13;70.24;99532.38;4992753;28;2005;-77
2022/12/26 01:53:57;;;;;;;;;;;;;;;6.11;70.29;99519.22;4991767;28;2145;-78
2022/12/26 01:56:23;;;;;;;;;;;;;;;6.09;70.51;99523.97;4986458;28;1396;-78
2022/12/26 01:58:50;;;;;;;;;;;;;;;6.17;70.42;99522.06;4994837;28;1386;-78
2022/12/26 02:01:16;;;;;;;;;;;;;;;6.00;70.75;99519.06;4983973;28;2136;-78
2022/12/26 02:06:27;;;;;;;;;;;;;;;6.09;70.43;99513.28;4994465;28;1347;-78
2022/12/26 02:08:53;;;;;;;;;;;;;;;6.17;70.08;99508.69;4970436;28;2111;-78
2022/12/26 02:11:20;;;;;;;;;;;;;;;6.04;70.72;99504.25;4989436;28;2130;-79
2022/12/26 02:13:47;;;;;;;;;;;;;;;6.16;70.14;99507.06;4994931;28;2620;-80
2022/12/26 02:16:13;;;;;;;;;;;;;;;6.03;70.61;99498.09;4976167;28;1443;-80
2022/12/26 02:18:40;;;;;;;;;;;;;;;6.07;70.44;99495.81;4974351;28;2187;-79
2022/12/26 02:21:06;;;;;;;;;;;;;;;6.01;70.87;99492.16;4994254;28;1789;-79
2022/12/26 02:23:33;;;;;;;;;;;;;;;6.11;70.52;99497.00;4976786;28;2294;-80
2022/12/26 02:25:59;;;;;;;;;;;;;;;6.02;70.91;99495.63;4975466;28;1442;-80
2022/12/26 02:28:26;;;;;;;;;;;;;;;6.06;70.64;99496.81;4974647;28;1947;-80
2022/12/26 02:30:52;;;;;;;;;;;;;;;6.02;70.91;99487.63;4975745;28;2092;-81
2022/12/26 02:33:19;;;;;;;;;;;;;;;6.04;70.77;99485.56;4975379;28;1906;-78
2022/12/26 02:35:46;;;;;;;;;;;;;;;5.93;70.86;99484.38;4975610;28;1571;-81
2022/12/26 02:38:12;;;;;;;;;;;;;;;5.96;70.86;99485.81;4975322;28;2176;-80
2022/12/26 02:40:39;;;;;;;;;;;;;;;6.06;70.73;99483.47;4993224;28;2291;-80
2022/12/26 02:43:05;;;;;;;;;;;;;;;6.02;70.58;99482.25;4972622;28;1500;-81
2022/12/26 02:48:16;;;;;;;;;;;;;;;6.00;70.59;99471.81;4973121;28;2766;-82
2022/12/26 03:15:13;;;;;;;;;;;;;;;5.99;70.95;99464.81;4988694;28;2243;-80
2022/12/26 03:17:39;;;;;;;;;;;;;;;5.88;71.37;99477.00;4972270;28;1447;-79
2022/12/26 03:20:06;;;;;;;;;;;;;;;5.97;70.96;99479.41;5000006;28;2734;-80
2022/12/26 03:22:32;;;;;;;;;;;;;;;5.86;71.11;99473.72;4992401;28;1792;-81
2022/12/26 03:27:43;;;;;;;;;;;;;;;5.99;70.83;99474.69;4987044;28;1367;-81
2022/12/26 03:32:54;;;;;;;;;;;;;;;5.86;71.33;99467.53;4991299;28;2090;-81
2022/12/26 03:35:20;;;;;;;;;;;;;;;5.84;71.69;99461.59;4965855;28;1910;-81
2022/12/26 03:37:47;;;;;;;;;;;;;;;5.83;71.55;99459.97;4984920;28;2067;-81
2022/12/26 04:45:50;;;;;;;;;;;;;;;5.99;71.00;99442.59;4982382;28;2217;-84
2022/12/26 04:51:01;;;;;;;;;;;;;;;5.85;71.44;99426.66;4983581;28;1731;-84
2022/12/26 04:53:28;;;;;;;;;;;;;;;5.86;71.50;99425.59;4977904;28;2979;-83
2022/12/26 04:55:55;;;;;;;;;;;;;;;6.01;70.89;99428.00;4981384;28;2296;-85
2022/12/26 04:58:25;;;;;;;;;;;;;;;5.95;71.09;99422.72;4967291;28;1735;-84
2022/12/26 05:09:32;;;;;;;;;;;;;;;5.96;71.20;99419.81;4986248;28;1466;-84
2022/12/26 05:11:51;;;;;;;;;;;;;;;5.99;71.13;99403.31;4986505;28;1982;-81
2022/12/26 05:14:17;;;;;;;;;;;;;;;5.94;71.38;99402.34;4967441;28;1975;-82
2022/12/26 05:30:39;;;;;;;;;;;;;;;5.91;71.16;99377.69;4975831;28;2092;-84
2022/12/26 05:35:50;;;;;;;;;;;;;;;5.88;71.44;99369.25;4986344;28;2073;-85
2022/12/26 05:38:17;;;;;;;;;;;;;;;5.93;71.16;99372.13;4987098;28;1500;-85
2022/12/26 05:40:44;;;;;;;;;;;;;;;5.97;71.01;99367.16;4969367;28;1707;-84
2022/12/26 05:43:10;;;;;;;;;;;;;;;5.94;71.18;99371.09;4964128;28;1753;-84
2022/12/26 05:45:37;;;;;;;;;;;;;;;6.01;71.07;99373.72;4985683;28;1761;-84
2022/12/26 05:48:04;;;;;;;;;;;;;;;5.89;71.41;99365.56;4984981;28;1457;-84
2022/12/26 05:50:31;;;;;;;;;;;;;;;5.95;71.10;99351.34;4988789;28;1473;-83
2022/12/26 05:52:57;;;;;;;;;;;;;;;5.96;71.01;99357.50;4969955;28;2031;-84
2022/12/26 05:55:24;;;;;;;;;;;;;;;5.82;71.76;99344.22;4980982;28;2347;-84
2022/12/26 05:57:51;;;;;;;;;;;;;;;5.89;71.27;99345.00;4969020;28;1690;-83
2022/12/26 06:00:17;;;;;;;;;;;;;;;5.96;71.25;99347.63;4988128;28;1497;-83
2022/12/26 06:02:44;;;;;;;;;;;;;;;5.94;71.19;99351.56;4984738;28;2606;-81
2022/12/26 06:05:10;;;;;;;;;;;;;;;5.89;71.42;99338.84;4968018;28;1594;-83
2022/12/26 06:07:37;;;;;;;;;;;;;;;5.94;71.38;99338.19;4969288;28;1620;-82
2022/12/26 06:10:05;;;;;;;;;;;;;;;5.93;71.29;99332.03;4971873;28;2127;-82
2022/12/26 06:12:31;;;;;;;;;;;;;;;5.87;71.35;99330.22;4994945;28;2025;-82
2022/12/26 06:14:58;;;;;;;;;;;;;;;5.95;71.03;99327.31;4977926;28;1918;-82
2022/12/26 06:17:24;;;;;;;;;;;;;;;5.88;71.30;99322.00;4982300;28;1642;-82
2022/12/26 06:19:51;;;;;;;;;;;;;;;5.91;71.15;99329.56;4979645;28;1880;-82
2022/12/26 06:22:18;;;;;;;;;;;;;;;5.90;71.44;99327.09;4985037;28;1659;-85
2022/12/26 06:24:45;;;;;;;;;;;;;;;5.96;71.17;99323.59;4969559;28;1784;-83
2022/12/26 06:27:11;;;;;;;;;;;;;;;5.85;71.60;99319.75;4967835;28;1520;-85
2022/12/26 06:29:38;;;;;;;;;;;;;;;5.95;71.20;99324.63;4970529;28;1845;-83
2022/12/26 06:32:05;;;;;;;;;;;;;;;5.85;71.48;99319.75;4969686;28;2169;-84
2022/12/26 06:34:31;;;;;;;;;;;;;;;5.84;71.80;99330.66;4967686;28;1906;-84
2022/12/26 06:36:58;;;;;;;;;;;;;;;5.94;71.28;99328.31;4986755;28;1505;-84
2022/12/26 06:39:24;;;;;;;;;;;;;;;5.89;71.21;99323.63;4970138;28;1486;-85
2022/12/26 06:41:51;;;;;;;;;;;;;;;5.83;71.57;99315.66;4966302;28;1741;-85
2022/12/26 06:44:17;;;;;;;;;;;;;;;5.89;71.21;99325.47;4985492;28;1537;-85
2022/12/26 06:46:44;;;;;;;;;;;;;;;5.88;71.21;99321.16;4987060;28;1439;-86
2022/12/26 06:49:10;;;;;;;;;;;;;;;5.86;71.45;99325.91;4969160;28;1571;-85
2022/12/26 06:51:37;;;;;;;;;;;;;;;5.82;71.81;99330.84;4967518;28;1988;-84
2022/12/26 06:54:04;;;;;;;;;;;;;;;5.77;71.78;99332.56;4983129;28;1977;-85
2022/12/26 06:56:30;;;;;;;;;;;;;;;5.94;71.53;99344.34;4969924;28;2095;-87
2022/12/26 06:58:57;;;;;;;;;;;;;;;5.83;71.41;99339.72;4969669;28;1584;-85
2022/12/26 07:01:24;;;;;;;;;;;;;;;5.83;71.85;99337.03;4985517;28;1819;-85
2022/12/26 07:03:50;;;;;;;;;;;;;;;5.82;71.88;99344.22;4967250;28;1765;-85
2022/12/26 07:06:17;;;;;;;;;;;;;;;5.88;71.55;99342.53;4967150;28;1744;-84
2022/12/26 07:08:43;;;;;;;;;;;;;;;5.72;72.25;99335.06;4982020;28;2474;-87
2022/12/26 07:11:10;;;;;;;;;;;;;;;5.75;71.75;99340.78;4984714;28;2611;-87
2022/12/26 07:13:37;;;;;;;;;;;;;;;6.02;70.92;99338.75;4988006;28;1527;-87
2022/12/26 07:16:03;;;;;;;;;;;;;;;5.77;71.59;99340.59;4983806;28;2062;-88
2022/12/26 07:18:30;;;;;;;;;;;;;;;5.79;71.64;99333.97;4985742;28;1481;-88
2022/12/26 07:20:57;;;;;;;;;;;;;;;5.88;71.35;99335.34;4966391;28;2015;-87
2022/12/26 07:23:23;;;;;;;;;;;;;;;5.78;71.71;99335.00;4986337;28;1760;-86
2022/12/26 07:25:50;;;;;;;;;;;;;;;5.78;72.02;99320.84;4969255;28;1730;-87
2022/12/26 07:28:16;;;;;;;;;;;;;;;5.68;72.20;99330.16;4968674;28;1582;-89
2022/12/26 07:30:43;;;;;;;;;;;;;;;5.80;71.65;99321.44;4968192;28;2020;-88
2022/12/26 07:33:09;;;;;;;;;;;;;;;5.82;71.60;99322.84;4967007;28;1549;-86
2022/12/26 07:35:36;;;;;;;;;;;;;;;5.74;72.07;99306.28;4971345;28;1967;-88
2022/12/26 07:38:02;;;;;;;;;;;;;;;5.80;71.78;99308.91;4995392;28;1210;-87
2022/12/26 07:40:29;;;;;;;;;;;;;;;5.76;71.81;99313.03;4991427;28;2724;-87
2022/12/26 07:42:55;;;;;;;;;;;;;;;5.68;72.29;99311.47;4984527;28;1457;-87
2022/12/26 07:45:22;;;;;;;;;;;;;;;5.84;72.00;99303.94;4987127;28;1554;-88
2022/12/26 07:47:49;;;;;;;;;;;;;;;5.76;71.93;99299.66;4982621;28;1765;-88
2022/12/26 07:50:17;;;;;;;;;;;;;;;5.72;72.20;99292.34;4964049;28;1987;-87
2022/12/26 07:52:44;;;;;;;;;;;;;;;5.76;72.15;99288.97;4971945;28;1494;-88
2022/12/26 07:55:10;;;;;;;;;;;;;;;5.78;71.97;99286.91;4974852;28;1906;-88
2022/12/26 07:57:37;;;;;;;;;;;;;;;5.73;72.29;99280.59;4991111;28;1130;-88
2022/12/26 08:00:04;;;;;;;;;;;;;;;5.65;72.40;99279.03;4967719;28;1289;-89
2022/12/26 08:02:31;;;;;;;;;;;;;;;5.74;72.08;99282.25;4981901;28;1262;-89
2022/12/26 08:04:57;;;;;;;;;;;;;;;5.72;72.25;99276.31;4981344;28;1826;-89
2022/12/26 08:07:24;;;;;;;;;;;;;;;5.70;72.06;99271.97;4981721;28;1278;-89
2022/12/26 08:09:50;;;;;;;;;;;;;;;5.78;71.90;99283.44;4996854;28;2074;-89
2022/12/26 08:12:20;;;;;;;;;;;;;;;5.71;72.43;99272.81;4998919;28;1047;-90
2022/12/26 08:14:47;;;;;;;;;;;;;;;5.68;72.44;99263.38;4977929;28;1972;-90
2022/12/26 08:17:13;;;;;;;;;;;;;;;5.67;72.40;99269.75;4983067;28;2439;-90
2022/12/26 08:19:40;;;;;;;;;;;;;;;5.63;72.65;99254.38;4979622;28;2282;-90
2022/12/26 08:22:07;;;;;;;;;;;;;;;5.74;72.20;99244.84;4978757;28;2048;-90
2022/12/26 08:24:33;;;;;;;;;;;;;;;5.63;72.89;99238.34;4976538;28;1781;-90
2022/12/26 08:27:00;;;;;;;;;;;;;;;5.61;72.61;99230.56;4994384;28;1336;-90
2022/12/26 08:29:26;;;;;;;;;;;;;;;5.65;72.50;99225.63;4978457;28;1222;-91
2022/12/26 08:31:53;;;;;;;;;;;;;;;5.62;72.54;99218.84;4969126;28;2095;-90
2022/12/26 08:34:20;;;;;;;;;;;;;;;5.60;72.70;99220.09;4978871;28;1974;-90
2022/12/26 08:36:46;;;;;;;;;;;;;;;5.60;72.60;99204.88;4968974;28;1792;-90
2022/12/26 08:39:13;;;;;;;;;;;;;;;5.59;72.61;99211.28;4970081;28;1830;-90
2022/12/26 08:41:40;;;;;;;;;;;;;;;5.60;72.55;99220.91;4967276;28;1777;-89
2022/12/26 08:44:06;;;;;;;;;;;;;;;5.67;72.52;99215.50;4974185;28;1801;-89
2022/12/26 08:46:33;;;;;;;;;;;;;;;5.58;72.54;99214.97;4966731;28;1214;-89
2022/12/26 08:48:59;;;;;;;;;;;;;;;5.62;72.61;99216.19;4974800;28;2598;-90
2022/12/26 08:51:26;;;;;;;;;;;;;;;5.66;72.58;99211.22;4974834;28;1563;-90
2022/12/26 08:53:53;;;;;;;;;;;;;;;5.52;72.84;99209.69;4977187;28;1347;-88
2022/12/26 08:56:20;;;;;;;;;;;;;;;5.54;72.95;99203.09;4970978;28;2080;-89
2022/12/26 08:58:47;;;;;;;;;;;;;;;5.59;72.25;99202.41;4975011;28;1278;-90
2022/12/26 09:01:14;;;;;;;;;;;;;;;5.57;72.62;99201.84;4975400;28;1540;-90
2022/12/26 09:03:41;;;;;;;;;;;;;;;5.62;72.61;99197.47;4979489;28;1209;-89
2022/12/26 09:06:08;;;;;;;;;;;;;;;5.53;72.98;99190.78;4980936;28;1342;-90
2022/12/26 09:08:38;;;;;;;;;;;;;;;5.55;72.82;99190.56;4982641;28;1301;-90
2022/12/26 09:11:04;;;;;;;;;;;;;;;5.58;72.70;99192.78;4979187;28;1825;-90
2022/12/26 09:13:33;;;;;;;;;;;;;;;5.58;72.79;99190.94;4989390;28;1292;-89
2022/12/26 09:16:00;;;;;;;;;;;;;;;5.55;72.88;99190.56;4977994;28;1919;-90
2022/12/26 09:18:27;;;;;;;;;;;;;;;5.64;72.70;99191.91;4978891;28;2021;-89
2022/12/26 09:20:54;;;;;;;;;;;;;;;5.56;72.84;99193.03;4975622;28;2263;-88
2022/12/26 09:23:21;;;;;;;;;;;;;;;5.58;72.60;99176.75;4980859;28;1496;-85
2022/12/26 09:25:47;;;;;;;;;;;;;;;5.61;72.64;99179.81;4971289;28;1907;-85
2022/12/26 09:28:14;;;;;;;;;;;;;;;5.56;72.88;99170.81;4987719;28;1446;-85
2022/12/26 09:30:41;;;;;;;;;;;;;;;5.57;72.88;99170.59;4975257;28;2005;-85
2022/12/26 09:33:07;;;;;;;;;;;;;;;5.57;72.57;99167.94;4973188;28;1771;-85
2022/12/26 09:35:34;;;;;;;;;;;;;;;5.50;73.08;99169.88;4973752;28;2024;-85
2022/12/26 09:38:01;;;;;;;;;;;;;;;5.50;73.07;99164.53;4969937;28;1985;-84
2022/12/26 09:40:27;;;;;;;;;;;;;;;5.52;72.82;99165.09;4987704;28;2101;-85
2022/12/26 09:42:54;;;;;;;;;;;;;;;5.53;72.98;99168.59;4975605;28;1803;-85
2022/12/26 09:45:20;;;;;;;;;;;;;;;5.63;72.51;99160.91;4984523;28;1456;-85
2022/12/26 09:47:47;;;;;;;;;;;;;;;5.53;72.88;99172.09;4990776;28;1418;-85
2022/12/26 09:50:13;;;;;;;;;;;;;;;5.43;73.46;99175.25;4967907;28;2213;-85
2022/12/26 09:52:40;;;;;;;;;;;;;;;5.53;72.95;99172.09;4970614;28;1847;-87
2022/12/26 09:55:07;;;;;;;;;;;;;;;5.45;73.42;99169.69;4984456;28;1910;-86
2022/12/26 09:57:33;;;;;;;;;;;;;;;5.43;73.36;99171.75;4972753;28;1908;-85
2022/12/26 10:00:00;;;;;;;;;;;;;;;5.47;73.17;99165.78;4970672;28;1892;-84
2022/12/26 10:02:27;;;;;;;;;;;;;;;5.52;72.98;99162.44;4988593;28;4725;-85
2022/12/26 10:04:53;;;;;;;;;;;;;;;5.50;73.03;99156.50;4975213;28;1473;-86
2022/12/26 10:07:20;;;;;;;;;;;;;;;5.42;73.32;99160.28;4972752;28;1975;-85
2022/12/26 10:09:47;;;;;;;;;;;;;;;5.34;73.59;99159.75;4970120;28;1838;-83
2022/12/26 10:12:13;;;;;;;;;;;;;;;5.42;73.30;99152.25;4970749;28;1684;-85
2022/12/26 10:14:40;;;;;;;;;;;;;;;5.45;73.31;99151.00;4986582;28;1725;-85
2022/12/26 10:17:07;;;;;;;;;;;;;;;5.46;73.21;99145.44;4969291;28;1918;-84
2022/12/26 10:19:33;;;;;;;;;;;;;;;5.40;73.52;99140.16;4969551;28;1835;-85
2022/12/26 10:22:00;;;;;;;;;;;;;;;5.40;73.46;99134.81;4987292;28;1680;-84
2022/12/26 10:24:26;;;;;;;;;;;;;;;5.41;73.42;99128.44;4970440;28;2737;-84
2022/12/26 10:26:53;;;;;;;;;;;;;;;5.48;73.27;99121.19;4987284;28;2026;-84
2022/12/26 10:29:19;;;;;;;;;;;;;;;5.43;73.32;99113.03;4971303;28;2160;-85
2022/12/26 10:31:46;;;;;;;;;;;;;;;5.40;73.36;99111.59;4965400;28;2004;-83
2022/12/26 10:34:12;;;;;;;;;;;;;;;5.36;73.60;99107.75;4971130;28;2175;-84
2022/12/26 10:36:39;;;;;;;;;;;;;;;5.40;73.46;99105.47;4969715;28;1914;-84
2022/12/26 10:39:06;;;;;;;;;;;;;;;5.40;73.61;99098.25;4970243;28;2047;-83
2022/12/26 10:41:32;;;;;;;;;;;;;;;5.44;73.38;99088.78;4989843;28;1904;-83
2022/12/26 10:43:59;;;;;;;;;;;;;;;5.39;73.27;99079.81;4982579;28;2025;-84
2022/12/26 10:46:25;;;;;;;;;;;;;;;5.36;73.62;99074.91;4989337;28;2050;-83
2022/12/26 10:48:52;;;;;;;;;;;;;;;5.43;73.23;99068.44;4986113;28;1964;-83
2022/12/26 10:51:18;;;;;;;;;;;;;;;5.36;73.58;99061.56;4973935;28;2019;-83
2022/12/26 10:53:45;;;;;;;;;;;;;;;5.28;73.96;99057.31;4971723;28;2602;-83
2022/12/26 10:56:11;;;;;;;;;;;;;;;5.27;74.15;99057.56;4978881;28;2010;-82
2022/12/26 10:58:38;;;;;;;;;;;;;;;5.25;74.09;99047.06;4971270;28;1696;-83
2022/12/26 11:01:05;;;;;;;;;;;;;;;5.32;73.95;99033.66;4967118;28;1409;-82
2022/12/26 11:03:31;;;;;;;;;;;;;;;5.33;73.64;99025.44;4993431;28;1770;-82
2022/12/26 11:05:58;;;;;;;;;;;;;;;5.33;73.68;99024.63;4967187;28;2082;-83
2022/12/26 11:08:24;;;;;;;;;;;;;;;5.38;73.58;99027.41;4975207;28;2233;-83
2022/12/26 11:10:51;;;;;;;;;;;;;;;5.43;73.43;99023.03;4990306;28;1920;-82
2022/12/26 11:13:18;;;;;;;;;;;;;;;5.37;73.68;99010.59;4991129;28;2398;-83
2022/12/26 11:15:44;;;;;;;;;;;;;;;5.22;74.18;99013.63;4988693;28;2080;-81
2022/12/26 11:18:11;;;;;;;;;;;;;;;5.19;74.39;99011.41;4990105;28;1873;-82
2022/12/26 11:20:37;;;;;;;;;;;;;;;5.28;74.05;99009.25;4975237;28;1488;-81
2022/12/26 11:23:04;;;;;;;;;;;;;;;5.31;73.95;99000.00;4968694;28;1713;-81
2022/12/26 11:25:33;;;;;;;;;;;;;;;5.28;73.93;98997.78;4991523;28;1859;-81
2022/12/26 11:28:00;;;;;;;;;;;;;;;5.29;73.91;98988.72;4978209;28;1952;-82
2022/12/26 11:30:27;;;;;;;;;;;;;;;5.34;73.76;98994.22;4974988;28;2855;-82
2022/12/26 11:32:53;;;;;;;;;;;;;;;5.33;74.06;98990.72;4992462;28;1473;-82
2022/12/26 11:35:20;;;;;;;;;;;;;;;5.24;74.13;98974.19;4975951;28;1910;-82
2022/12/26 11:37:47;;;;;;;;;;;;;;;5.19;74.32;98965.22;4996364;28;1945;-81
2022/12/26 11:40:14;;;;;;;;;;;;;;;5.18;74.56;98963.59;4992804;28;1926;-81
2022/12/26 11:42:40;;;;;;;;;;;;;;;5.17;74.43;98957.41;4975023;28;2048;-82
2022/12/26 11:45:07;;;;;;;;;;;;;;;5.14;74.47;98957.88;4998098;28;1855;-82
2022/12/26 11:47:33;;;;;;;;;;;;;;;5.13;74.63;98953.59;4995590;28;1712;-82
2022/12/26 11:50:00;;;;;;;;;;;;;;;5.18;74.42;98955.59;4971497;28;2157;-82
2022/12/26 11:52:26;;;;;;;;;;;;;;;5.20;74.20;98940.97;4990770;28;1807;-82
2022/12/26 11:54:53;;;;;;;;;;;;;;;5.19;74.43;98935.88;4986977;28;1624;-83
2022/12/26 11:57:20;;;;;;;;;;;;;;;5.23;74.23;98929.03;4971685;28;2282;-81
2022/12/26 11:59:47;;;;;;;;;;;;;;;5.17;74.49;98937.94;4969359;28;1804;-82
2022/12/26 12:02:13;;;;;;;;;;;;;;;5.14;74.63;98933.84;4988433;28;1795;-81
2022/12/26 12:04:40;;;;;;;;;;;;;;;5.13;74.54;98924.22;4975809;28;1681;-82
2022/12/26 12:07:07;;;;;;;;;;;;;;;5.14;74.59;98931.19;4978520;28;2051;-81
2022/12/26 12:09:33;;;;;;;;;;;;;;;5.15;74.77;98916.81;4973874;28;2425;-81
2022/12/26 12:12:00;;;;;;;;;;;;;;;5.15;74.53;98916.81;4980189;28;1312;-82
2022/12/26 12:14:26;;;;;;;;;;;;;;;5.20;74.45;98910.78;4979887;28;1365;-81
2022/12/26 12:16:53;;;;;;;;;;;;;;;5.16;74.34;98905.09;4976941;28;2108;-82
2022/12/26 12:19:19;;;;;;;;;;;;;;;5.14;74.44;98888.47;4975495;28;2668;-81
2022/12/26 12:21:47;;;;;;;;;;;;;;;5.18;74.47;98892.34;4975230;28;2279;-82
2022/12/26 12:24:13;;;;;;;;;;;;;;;5.12;74.75;98877.22;4994553;28;1736;-81
2022/12/26 12:26:40;;;;;;;;;;;;;;;5.13;74.64;98875.38;4978369;28;1497;-83
2022/12/26 12:29:06;;;;;;;;;;;;;;;5.11;74.61;98878.25;4972391;28;1524;-85
2022/12/26 12:31:33;;;;;;;;;;;;;;;5.10;74.68;98868.63;4977868;28;1929;-84
2022/12/26 12:33:59;;;;;;;;;;;;;;;5.11;74.59;98866.78;4978864;28;2862;-85
2022/12/26 12:36:26;;;;;;;;;;;;;;;5.09;74.56;98866.16;4988227;28;1914;-85
2022/12/26 12:38:52;;;;;;;;;;;;;;;5.10;74.83;98867.81;4977665;28;2025;-85
2022/12/26 12:41:19;;;;;;;;;;;;;;;5.08;74.67;98859.22;4979728;28;1313;-85
2022/12/26 12:43:47;;;;;;;;;;;;;;;5.09;74.79;98852.81;4980811;28;1297;-85
2022/12/26 12:46:14;;;;;;;;;;;;;;;5.09;74.81;98839.50;4971733;28;2069;-85
2022/12/26 12:48:40;;;;;;;;;;;;;;;5.07;74.79;98850.41;4962653;28;2123;-86
2022/12/26 12:51:07;;;;;;;;;;;;;;;5.07;74.68;98838.91;4982670;28;2187;-85
2022/12/26 12:53:34;;;;;;;;;;;;;;;5.06;74.81;98824.78;4976659;28;1188;-85
2022/12/26 12:56:00;;;;;;;;;;;;;;;5.07;74.92;98825.56;4992825;28;2353;-85
2022/12/26 12:58:27;;;;;;;;;;;;;;;5.05;74.69;98831.13;4995963;28;2242;-85
2022/12/26 13:00:55;;;;;;;;;;;;;;;5.05;74.81;98817.78;4978956;28;2441;-86
2022/12/26 13:03:22;;;;;;;;;;;;;;;5.06;74.76;98821.25;4979430;28;2845;-85
2022/12/26 13:05:48;;;;;;;;;;;;;;;5.07;74.95;98826.38;4973939;28;2102;-85
2022/12/26 13:08:15;;;;;;;;;;;;;;;5.06;74.96;98821.25;4983185;28;2959;-85
2022/12/26 13:10:42;;;;;;;;;;;;;;;5.04;74.86;98807.34;4978305;28;2114;-85
2022/12/26 13:13:08;;;;;;;;;;;;;;;5.05;74.88;98811.63;4977515;28;2950;-84
2022/12/26 13:15:35;;;;;;;;;;;;;;;5.05;74.86;98803.63;4979096;28;2063;-83
2022/12/26 13:18:02;;;;;;;;;;;;;;;5.03;74.93;98795.03;4987508;28;2221;-84
2022/12/26 13:20:28;;;;;;;;;;;;;;;5.05;74.81;98798.28;4974833;28;2625;-84
2022/12/26 13:25:39;;;;;;;;;;;;;;;5.03;74.82;98782.53;4971019;28;4296;-84
2022/12/26 13:28:08;;;;;;;;;;;;;;;5.03;75.03;98787.88;4971415;28;3955;-84
2022/12/26 13:30:34;;;;;;;;;;;;;;;5.05;74.99;98783.09;4969966;28;4153;-84
2022/12/26 13:33:01;;;;;;;;;;;;;;;5.05;74.98;98790.28;4988408;28;4475;-84
2022/12/26 13:35:27;;;;;;;;;;;;;;;5.03;74.99;98779.03;4985135;28;4116;-84
2022/12/26 13:37:54;;;;;;;;;;;;;;;5.01;75.04;98771.25;4973926;28;4897;-84
2022/12/26 13:40:20;;;;;;;;;;;;;;;5.01;75.04;98768.59;4973580;28;3439;-83
2022/12/26 13:45:32;;;;;;;;;;;;;;;4.99;75.11;98752.78;4973160;28;2289;-83
2022/12/26 13:47:59;;;;;;;;;;;;;;;4.99;74.99;98746.66;4968369;28;2136;-84
2022/12/26 13:50:25;;;;;;;;;;;;;;;5.00;75.27;98751.78;4995539;28;1191;-83
2022/12/26 13:52:52;;;;;;;;;;;;;;;4.99;75.12;98744.78;4996128;28;1434;-83
2022/12/26 13:55:18;;;;;;;;;;;;;;;4.98;75.11;98745.84;4978012;28;2888;-83
2022/12/26 13:57:46;;;;;;;;;;;;;;;4.98;74.91;98740.50;4979149;28;1918;-83
2022/12/26 14:00:12;;;;;;;;;;;;;;;4.96;75.15;98736.44;4977390;28;2129;-83
2022/12/26 14:02:39;;;;;;;;;;;;;;;4.98;75.27;98727.16;4979352;28;1274;-84
2022/12/26 14:05:06;;;;;;;;;;;;;;;4.99;75.19;98725.31;4975482;28;2338;-84
2022/12/26 14:07:32;;;;;;;;;;;;;;;4.98;75.05;98721.03;4976193;28;2123;-83
2022/12/26 14:09:59;;;;;;;;;;;;;;;4.99;75.21;98719.97;4977737;28;2229;-84
2022/12/26 14:12:26;;;;;;;;;;;;;;;4.96;75.29;98712.41;4984337;28;2284;-84
2022/12/26 14:14:52;;;;;;;;;;;;;;;4.98;75.28;98721.03;4977892;28;1280;-84
2022/12/26 14:17:19;;;;;;;;;;;;;;;4.96;75.18;98705.22;4977040;28;2001;-83
2022/12/26 14:19:45;;;;;;;;;;;;;;;4.98;75.33;98707.69;4978196;28;2134;-84
2022/12/26 14:22:12;;;;;;;;;;;;;;;4.97;75.34;98706.88;4975116;28;2064;-85
2022/12/26 14:24:38;;;;;;;;;;;;;;;4.94;75.35;98699.31;4976657;28;2234;-85
2022/12/26 14:27:05;;;;;;;;;;;;;;;4.97;75.24;98690.03;4969735;28;1989;-83
2022/12/26 14:29:32;;;;;;;;;;;;;;;4.96;75.18;98688.41;4984680;28;1698;-84
2022/12/26 14:31:58;;;;;;;;;;;;;;;4.97;75.23;98688.19;4990859;28;2082;-85
2022/12/26 14:34:25;;;;;;;;;;;;;;;4.97;75.17;98684.69;4976320;28;1646;-85
2022/12/26 14:36:51;;;;;;;;;;;;;;;4.96;75.30;98689.22;4973975;28;1907;-85
2022/12/26 14:39:18;;;;;;;;;;;;;;;4.95;75.26;98681.47;4993211;28;2371;-85
2022/12/26 14:44:28;;;;;;;;;;;;;;;4.95;75.20;98687.59;4978519;28;3248;-84
2022/12/26 14:46:55;;;;;;;;;;;;;;;4.94;75.28;98669.97;4979508;28;1865;-82
2022/12/26 14:49:21;;;;;;;;;;;;;;;4.94;75.12;98680.66;4978847;28;2018;-83
2022/12/26 14:51:48;;;;;;;;;;;;;;;4.94;75.06;98680.66;4975958;28;2636;-83
2022/12/26 14:54:15;;;;;;;;;;;;;;;4.94;75.25;98669.13;4969586;28;2157;-81
2022/12/26 14:56:42;;;;;;;;;;;;;;;4.94;75.35;98663.81;4973161;28;1975;-82
2022/12/26 14:59:09;;;;;;;;;;;;;;;4.93;75.37;98665.66;4964739;28;2171;-84
2022/12/26 15:01:35;;;;;;;;;;;;;;;4.92;75.36;98664.03;4986248;28;2198;-83
2022/12/26 15:04:02;;;;;;;;;;;;;;;4.93;75.39;98664.84;4954141;28;2248;-82
2022/12/26 15:06:28;;;;;;;;;;;;;;;4.91;75.28;98658.94;4984740;28;1533;-84
2022/12/26 15:08:55;;;;;;;;;;;;;;;4.92;75.23;98655.22;4967898;28;1582;-83
2022/12/26 15:11:21;;;;;;;;;;;;;;;4.92;75.40;98652.56;4980166;28;2075;-83
2022/12/26 15:13:48;;;;;;;;;;;;;;;4.90;75.26;98649.31;4987574;28;2338;-83
2022/12/26 15:16:15;;;;;;;;;;;;;;;4.90;75.39;98646.63;4967900;28;2164;-83
2022/12/26 15:18:42;;;;;;;;;;;;;;;4.89;75.48;98639.69;4969885;28;1634;-83
2022/12/26 15:21:09;;;;;;;;;;;;;;;4.89;75.38;98647.69;4969019;28;1704;-83